sensor_id;sensor_type;location;lat;lon;timestamp;P1;durP1;ratioP1;P2;durP2;ratioP2
80163;SDS011;70071;55.130;61.268;2023-11-19T00:00:57;2.05;;;1.23;;
80163;SDS011;70071;55.130;61.268;2023-11-19T00:03:23;1.80;;;0.90;;
80163;SDS011;70071;55.130;61.268;2023-11-19T00:05:49;1.60;;;0.90;;
80163;SDS011;70071;55.130;61.268;2023-11-19T00:08:15;2.30;;;0.93;;
80163;SDS011;70071;55.130;61.268;2023-11-19T00:10:41;3.40;;;1.10;;
80163;SDS011;70071;55.130;61.268;2023-11-19T00:13:07;1.92;;;0.88;;
80163;SDS011;70071;55.130;61.268;2023-11-19T00:15:35;2.38;;;0.95;;
80163;SDS011;70071;55.130;61.268;2023-11-19T00:18:01;2.50;;;1.45;;
80163;SDS011;70071;55.130;61.268;2023-11-19T00:20:30;1.65;;;0.82;;
80163;SDS011;70071;55.130;61.268;2023-11-19T00:22:56;2.40;;;1.00;;
80163;SDS011;70071;55.130;61.268;2023-11-19T00:25:23;3.33;;;0.80;;
80163;SDS011;70071;55.130;61.268;2023-11-19T00:27:52;2.33;;;1.02;;
80163;SDS011;70071;55.130;61.268;2023-11-19T00:30:19;1.95;;;0.90;;
80163;SDS011;70071;55.130;61.268;2023-11-19T00:32:45;2.97;;;1.15;;
80163;SDS011;70071;55.130;61.268;2023-11-19T00:35:11;2.38;;;1.23;;
80163;SDS011;70071;55.130;61.268;2023-11-19T00:37:37;3.05;;;1.00;;
80163;SDS011;70071;55.130;61.268;2023-11-19T00:40:03;4.32;;;1.40;;
80163;SDS011;70071;55.130;61.268;2023-11-19T00:44:56;2.42;;;1.20;;
80163;SDS011;70071;55.130;61.268;2023-11-19T00:47:23;3.60;;;1.60;;
80163;SDS011;70071;55.130;61.268;2023-11-19T00:49:49;2.97;;;1.50;;
80163;SDS011;70071;55.130;61.268;2023-11-19T00:52:16;3.40;;;1.40;;
80163;SDS011;70071;55.130;61.268;2023-11-19T00:54:42;3.10;;;1.45;;
80163;SDS011;70071;55.130;61.268;2023-11-19T00:57:09;3.97;;;1.63;;
80163;SDS011;70071;55.130;61.268;2023-11-19T00:59:35;2.10;;;1.00;;
80163;SDS011;70071;55.130;61.268;2023-11-19T01:02:01;4.97;;;2.03;;
80163;SDS011;70071;55.130;61.268;2023-11-19T01:04:35;1.98;;;0.70;;
80163;SDS011;70071;55.130;61.268;2023-11-19T01:07:02;2.15;;;0.95;;
80163;SDS011;70071;55.130;61.268;2023-11-19T01:09:38;3.70;;;1.70;;
80163;SDS011;70071;55.130;61.268;2023-11-19T01:12:04;2.08;;;1.13;;
80163;SDS011;70071;55.130;61.268;2023-11-19T01:14:30;3.42;;;1.77;;
80163;SDS011;70071;55.130;61.268;2023-11-19T01:16:56;3.53;;;1.85;;
80163;SDS011;70071;55.130;61.268;2023-11-19T01:19:23;4.93;;;2.00;;
80163;SDS011;70071;55.130;61.268;2023-11-19T01:21:50;3.90;;;1.58;;
80163;SDS011;70071;55.130;61.268;2023-11-19T01:24:16;5.13;;;1.80;;
80163;SDS011;70071;55.130;61.268;2023-11-19T01:26:43;4.55;;;2.08;;
80163;SDS011;70071;55.130;61.268;2023-11-19T01:29:14;4.32;;;2.25;;
80163;SDS011;70071;55.130;61.268;2023-11-19T01:31:40;4.65;;;1.38;;
80163;SDS011;70071;55.130;61.268;2023-11-19T01:36:33;2.55;;;1.20;;
80163;SDS011;70071;55.130;61.268;2023-11-19T01:38:59;3.45;;;1.63;;
80163;SDS011;70071;55.130;61.268;2023-11-19T01:41:26;3.25;;;1.50;;
80163;SDS011;70071;55.130;61.268;2023-11-19T01:43:52;3.55;;;1.02;;
80163;SDS011;70071;55.130;61.268;2023-11-19T01:46:18;2.17;;;1.00;;
80163;SDS011;70071;55.130;61.268;2023-11-19T01:48:44;2.85;;;1.23;;
80163;SDS011;70071;55.130;61.268;2023-11-19T01:51:12;2.78;;;1.48;;
80163;SDS011;70071;55.130;61.268;2023-11-19T01:53:42;3.10;;;1.50;;
80163;SDS011;70071;55.130;61.268;2023-11-19T01:56:09;3.50;;;1.50;;
80163;SDS011;70071;55.130;61.268;2023-11-19T01:58:37;2.67;;;1.00;;
80163;SDS011;70071;55.130;61.268;2023-11-19T02:01:07;1.77;;;1.00;;
80163;SDS011;70071;55.130;61.268;2023-11-19T02:03:34;2.53;;;1.00;;
80163;SDS011;70071;55.130;61.268;2023-11-19T02:06:01;3.78;;;1.30;;
80163;SDS011;70071;55.130;61.268;2023-11-19T02:08:29;2.58;;;1.52;;
80163;SDS011;70071;55.130;61.268;2023-11-19T02:10:55;2.95;;;1.10;;
80163;SDS011;70071;55.130;61.268;2023-11-19T02:13:26;3.85;;;0.98;;
80163;SDS011;70071;55.130;61.268;2023-11-19T02:15:55;2.80;;;1.25;;
80163;SDS011;70071;55.130;61.268;2023-11-19T02:18:25;3.45;;;0.88;;
80163;SDS011;70071;55.130;61.268;2023-11-19T02:20:56;2.45;;;1.15;;
80163;SDS011;70071;55.130;61.268;2023-11-19T02:23:23;3.47;;;1.00;;
80163;SDS011;70071;55.130;61.268;2023-11-19T02:25:59;2.63;;;1.15;;
80163;SDS011;70071;55.130;61.268;2023-11-19T02:28:28;1.70;;;0.98;;
80163;SDS011;70071;55.130;61.268;2023-11-19T02:30:54;3.45;;;1.48;;
80163;SDS011;70071;55.130;61.268;2023-11-19T02:33:20;2.03;;;0.90;;
80163;SDS011;70071;55.130;61.268;2023-11-19T02:35:46;2.05;;;1.08;;
80163;SDS011;70071;55.130;61.268;2023-11-19T02:38:12;2.08;;;0.93;;
80163;SDS011;70071;55.130;61.268;2023-11-19T02:40:39;1.00;;;0.30;;
80163;SDS011;70071;55.130;61.268;2023-11-19T02:43:05;2.15;;;0.93;;
80163;SDS011;70071;55.130;61.268;2023-11-19T02:45:31;1.90;;;0.82;;
80163;SDS011;70071;55.130;61.268;2023-11-19T02:47:57;1.98;;;0.80;;
80163;SDS011;70071;55.130;61.268;2023-11-19T02:50:24;3.35;;;1.23;;
80163;SDS011;70071;55.130;61.268;2023-11-19T02:52:52;2.20;;;0.80;;
80163;SDS011;70071;55.130;61.268;2023-11-19T02:55:19;2.03;;;0.90;;
80163;SDS011;70071;55.130;61.268;2023-11-19T02:57:45;1.77;;;0.90;;
80163;SDS011;70071;55.130;61.268;2023-11-19T03:00:15;2.75;;;1.27;;
80163;SDS011;70071;55.130;61.268;2023-11-19T03:02:41;3.33;;;1.10;;
80163;SDS011;70071;55.130;61.268;2023-11-19T03:05:23;3.38;;;1.10;;
80163;SDS011;70071;55.130;61.268;2023-11-19T03:07:50;2.67;;;0.90;;
80163;SDS011;70071;55.130;61.268;2023-11-19T03:10:15;2.28;;;1.30;;
80163;SDS011;70071;55.130;61.268;2023-11-19T03:12:42;1.65;;;0.73;;
80163;SDS011;70071;55.130;61.268;2023-11-19T03:15:09;2.45;;;1.23;;
80163;SDS011;70071;55.130;61.268;2023-11-19T03:17:38;4.50;;;1.40;;
80163;SDS011;70071;55.130;61.268;2023-11-19T03:20:06;1.88;;;1.00;;
80163;SDS011;70071;55.130;61.268;2023-11-19T03:22:37;1.33;;;0.90;;
80163;SDS011;70071;55.130;61.268;2023-11-19T03:25:04;3.80;;;1.00;;
80163;SDS011;70071;55.130;61.268;2023-11-19T03:27:31;2.60;;;1.10;;
80163;SDS011;70071;55.130;61.268;2023-11-19T03:29:57;1.20;;;0.70;;
80163;SDS011;70071;55.130;61.268;2023-11-19T03:32:23;2.45;;;1.17;;
80163;SDS011;70071;55.130;61.268;2023-11-19T03:34:49;2.72;;;0.93;;
80163;SDS011;70071;55.130;61.268;2023-11-19T03:37:15;1.55;;;0.90;;
80163;SDS011;70071;55.130;61.268;2023-11-19T03:39:43;2.15;;;0.95;;
80163;SDS011;70071;55.130;61.268;2023-11-19T03:42:09;2.35;;;0.80;;
80163;SDS011;70071;55.130;61.268;2023-11-19T03:44:38;1.98;;;0.90;;
80163;SDS011;70071;55.130;61.268;2023-11-19T03:47:04;2.72;;;1.02;;
80163;SDS011;70071;55.130;61.268;2023-11-19T03:49:30;3.00;;;0.88;;
80163;SDS011;70071;55.130;61.268;2023-11-19T03:51:56;2.33;;;0.80;;
80163;SDS011;70071;55.130;61.268;2023-11-19T03:54:22;1.70;;;0.90;;
80163;SDS011;70071;55.130;61.268;2023-11-19T03:56:48;5.70;;;1.20;;
80163;SDS011;70071;55.130;61.268;2023-11-19T03:59:14;3.13;;;1.10;;
80163;SDS011;70071;55.130;61.268;2023-11-19T04:01:41;1.75;;;0.93;;
80163;SDS011;70071;55.130;61.268;2023-11-19T04:04:06;1.50;;;0.60;;
80163;SDS011;70071;55.130;61.268;2023-11-19T04:06:32;2.08;;;0.75;;
80163;SDS011;70071;55.130;61.268;2023-11-19T04:08:58;1.85;;;1.10;;
80163;SDS011;70071;55.130;61.268;2023-11-19T04:11:24;2.55;;;0.90;;
80163;SDS011;70071;55.130;61.268;2023-11-19T04:13:50;5.38;;;1.40;;
80163;SDS011;70071;55.130;61.268;2023-11-19T04:16:16;4.32;;;1.00;;
80163;SDS011;70071;55.130;61.268;2023-11-19T04:18:42;2.03;;;1.15;;
80163;SDS011;70071;55.130;61.268;2023-11-19T04:21:08;1.27;;;0.63;;
80163;SDS011;70071;55.130;61.268;2023-11-19T04:23:34;2.85;;;1.13;;
80163;SDS011;70071;55.130;61.268;2023-11-19T04:26:03;2.35;;;0.93;;
80163;SDS011;70071;55.130;61.268;2023-11-19T04:28:30;2.10;;;0.88;;
80163;SDS011;70071;55.130;61.268;2023-11-19T04:30:56;3.47;;;1.08;;
80163;SDS011;70071;55.130;61.268;2023-11-19T04:33:22;3.05;;;1.05;;
80163;SDS011;70071;55.130;61.268;2023-11-19T04:35:48;4.82;;;1.40;;
80163;SDS011;70071;55.130;61.268;2023-11-19T04:38:13;5.47;;;1.52;;
80163;SDS011;70071;55.130;61.268;2023-11-19T04:40:39;2.58;;;1.20;;
80163;SDS011;70071;55.130;61.268;2023-11-19T04:43:05;1.90;;;0.95;;
80163;SDS011;70071;55.130;61.268;2023-11-19T04:45:32;3.30;;;1.63;;
80163;SDS011;70071;55.130;61.268;2023-11-19T04:47:59;5.72;;;1.88;;
80163;SDS011;70071;55.130;61.268;2023-11-19T04:50:25;3.95;;;1.95;;
80163;SDS011;70071;55.130;61.268;2023-11-19T04:52:52;3.60;;;1.60;;
80163;SDS011;70071;55.130;61.268;2023-11-19T04:55:19;2.97;;;1.70;;
80163;SDS011;70071;55.130;61.268;2023-11-19T04:57:45;4.57;;;1.70;;
80163;SDS011;70071;55.130;61.268;2023-11-19T05:00:11;2.97;;;1.33;;
80163;SDS011;70071;55.130;61.268;2023-11-19T05:02:37;5.93;;;2.17;;
80163;SDS011;70071;55.130;61.268;2023-11-19T05:05:03;3.40;;;1.40;;
80163;SDS011;70071;55.130;61.268;2023-11-19T05:07:30;4.05;;;1.90;;
80163;SDS011;70071;55.130;61.268;2023-11-19T05:09:56;4.82;;;2.75;;
80163;SDS011;70071;55.130;61.268;2023-11-19T05:12:22;4.53;;;1.70;;
80163;SDS011;70071;55.130;61.268;2023-11-19T05:14:48;2.40;;;1.67;;
80163;SDS011;70071;55.130;61.268;2023-11-19T05:17:17;2.38;;;1.52;;
80163;SDS011;70071;55.130;61.268;2023-11-19T05:19:43;4.70;;;1.48;;
80163;SDS011;70071;55.130;61.268;2023-11-19T05:22:10;2.30;;;1.15;;
80163;SDS011;70071;55.130;61.268;2023-11-19T05:24:35;2.70;;;1.27;;
80163;SDS011;70071;55.130;61.268;2023-11-19T05:27:02;3.53;;;1.48;;
80163;SDS011;70071;55.130;61.268;2023-11-19T05:29:28;4.32;;;1.45;;
80163;SDS011;70071;55.130;61.268;2023-11-19T05:31:55;4.00;;;2.15;;
80163;SDS011;70071;55.130;61.268;2023-11-19T05:34:21;5.07;;;1.60;;
80163;SDS011;70071;55.130;61.268;2023-11-19T05:36:47;2.13;;;1.35;;
80163;SDS011;70071;55.130;61.268;2023-11-19T05:39:13;3.17;;;1.17;;
80163;SDS011;70071;55.130;61.268;2023-11-19T05:41:40;4.13;;;1.65;;
80163;SDS011;70071;55.130;61.268;2023-11-19T05:44:05;4.80;;;2.30;;
80163;SDS011;70071;55.130;61.268;2023-11-19T05:46:31;4.10;;;1.70;;
80163;SDS011;70071;55.130;61.268;2023-11-19T05:48:57;3.67;;;1.45;;
80163;SDS011;70071;55.130;61.268;2023-11-19T05:51:26;2.45;;;1.33;;
80163;SDS011;70071;55.130;61.268;2023-11-19T05:53:52;5.03;;;1.30;;
80163;SDS011;70071;55.130;61.268;2023-11-19T05:56:20;2.92;;;1.10;;
80163;SDS011;70071;55.130;61.268;2023-11-19T05:58:47;4.68;;;2.92;;
80163;SDS011;70071;55.130;61.268;2023-11-19T06:01:14;2.30;;;0.88;;
80163;SDS011;70071;55.130;61.268;2023-11-19T06:03:44;1.50;;;0.75;;
80163;SDS011;70071;55.130;61.268;2023-11-19T06:06:14;1.75;;;0.73;;
80163;SDS011;70071;55.130;61.268;2023-11-19T06:11:07;2.97;;;1.17;;
80163;SDS011;70071;55.130;61.268;2023-11-19T06:13:38;1.52;;;0.70;;
80163;SDS011;70071;55.130;61.268;2023-11-19T06:16:04;3.22;;;0.95;;
80163;SDS011;70071;55.130;61.268;2023-11-19T06:18:30;1.98;;;1.10;;
80163;SDS011;70071;55.130;61.268;2023-11-19T06:20:56;3.88;;;1.35;;
80163;SDS011;70071;55.130;61.268;2023-11-19T06:23:22;2.25;;;0.60;;
80163;SDS011;70071;55.130;61.268;2023-11-19T06:25:48;2.13;;;0.95;;
80163;SDS011;70071;55.130;61.268;2023-11-19T06:28:14;1.50;;;0.88;;
80163;SDS011;70071;55.130;61.268;2023-11-19T06:30:40;1.33;;;0.80;;
80163;SDS011;70071;55.130;61.268;2023-11-19T06:33:06;1.77;;;0.85;;
80163;SDS011;70071;55.130;61.268;2023-11-19T06:35:32;1.63;;;0.90;;
80163;SDS011;70071;55.130;61.268;2023-11-19T06:38:02;1.05;;;0.70;;
80163;SDS011;70071;55.130;61.268;2023-11-19T06:40:30;2.30;;;1.08;;
80163;SDS011;70071;55.130;61.268;2023-11-19T06:42:56;2.70;;;0.93;;
80163;SDS011;70071;55.130;61.268;2023-11-19T06:45:22;5.22;;;1.27;;
80163;SDS011;70071;55.130;61.268;2023-11-19T06:47:48;2.25;;;1.05;;
80163;SDS011;70071;55.130;61.268;2023-11-19T06:50:14;4.93;;;1.08;;
80163;SDS011;70071;55.130;61.268;2023-11-19T06:52:40;2.35;;;1.42;;
80163;SDS011;70071;55.130;61.268;2023-11-19T06:55:07;2.25;;;1.13;;
80163;SDS011;70071;55.130;61.268;2023-11-19T06:57:36;2.17;;;1.05;;
80163;SDS011;70071;55.130;61.268;2023-11-19T07:00:03;1.67;;;0.88;;
80163;SDS011;70071;55.130;61.268;2023-11-19T07:02:31;0.95;;;0.50;;
80163;SDS011;70071;55.130;61.268;2023-11-19T07:05:01;3.38;;;1.33;;
80163;SDS011;70071;55.130;61.268;2023-11-19T07:07:33;3.65;;;1.27;;
80163;SDS011;70071;55.130;61.268;2023-11-19T07:10:01;2.95;;;1.30;;
80163;SDS011;70071;55.130;61.268;2023-11-19T07:12:32;2.60;;;1.00;;
80163;SDS011;70071;55.130;61.268;2023-11-19T07:14:58;1.90;;;1.00;;
80163;SDS011;70071;55.130;61.268;2023-11-19T07:17:23;2.53;;;1.67;;
80163;SDS011;70071;55.130;61.268;2023-11-19T07:19:49;1.98;;;1.23;;
80163;SDS011;70071;55.130;61.268;2023-11-19T07:22:16;2.08;;;1.60;;
80163;SDS011;70071;55.130;61.268;2023-11-19T07:24:42;2.00;;;0.70;;
80163;SDS011;70071;55.130;61.268;2023-11-19T07:27:08;0.68;;;0.57;;
80163;SDS011;70071;55.130;61.268;2023-11-19T07:29:35;1.50;;;1.00;;
80163;SDS011;70071;55.130;61.268;2023-11-19T07:32:01;7.18;;;1.20;;
80163;SDS011;70071;55.130;61.268;2023-11-19T07:34:28;2.85;;;1.30;;
80163;SDS011;70071;55.130;61.268;2023-11-19T07:36:54;4.95;;;1.38;;
80163;SDS011;70071;55.130;61.268;2023-11-19T07:39:25;3.78;;;1.55;;
80163;SDS011;70071;55.130;61.268;2023-11-19T07:41:51;2.83;;;1.52;;
80163;SDS011;70071;55.130;61.268;2023-11-19T07:44:17;4.53;;;1.02;;
80163;SDS011;70071;55.130;61.268;2023-11-19T07:46:45;2.90;;;1.63;;
80163;SDS011;70071;55.130;61.268;2023-11-19T07:49:10;2.70;;;1.15;;
80163;SDS011;70071;55.130;61.268;2023-11-19T07:51:36;3.10;;;1.48;;
80163;SDS011;70071;55.130;61.268;2023-11-19T07:54:02;3.15;;;1.50;;
80163;SDS011;70071;55.130;61.268;2023-11-19T07:56:29;3.10;;;1.60;;
80163;SDS011;70071;55.130;61.268;2023-11-19T07:58:55;2.78;;;1.45;;
80163;SDS011;70071;55.130;61.268;2023-11-19T08:01:21;2.15;;;1.23;;
80163;SDS011;70071;55.130;61.268;2023-11-19T08:03:50;2.67;;;1.20;;
80163;SDS011;70071;55.130;61.268;2023-11-19T08:06:16;3.30;;;1.38;;
80163;SDS011;70071;55.130;61.268;2023-11-19T08:08:42;1.88;;;0.90;;
80163;SDS011;70071;55.130;61.268;2023-11-19T08:11:11;4.30;;;1.10;;
80163;SDS011;70071;55.130;61.268;2023-11-19T08:13:37;3.88;;;1.40;;
80163;SDS011;70071;55.130;61.268;2023-11-19T08:16:03;2.28;;;1.20;;
80163;SDS011;70071;55.130;61.268;2023-11-19T08:18:29;3.83;;;1.38;;
80163;SDS011;70071;55.130;61.268;2023-11-19T08:20:55;1.33;;;0.60;;
80163;SDS011;70071;55.130;61.268;2023-11-19T08:23:22;3.03;;;1.48;;
80163;SDS011;70071;55.130;61.268;2023-11-19T08:25:51;2.75;;;1.30;;
80163;SDS011;70071;55.130;61.268;2023-11-19T08:28:19;1.02;;;0.50;;
80163;SDS011;70071;55.130;61.268;2023-11-19T08:30:44;0.75;;;0.38;;
80163;SDS011;70071;55.130;61.268;2023-11-19T08:33:10;3.67;;;1.13;;
80163;SDS011;70071;55.130;61.268;2023-11-19T08:35:36;2.40;;;1.25;;
80163;SDS011;70071;55.130;61.268;2023-11-19T08:38:02;5.82;;;1.08;;
80163;SDS011;70071;55.130;61.268;2023-11-19T08:40:28;2.65;;;1.42;;
80163;SDS011;70071;55.130;61.268;2023-11-19T08:42:57;3.10;;;1.60;;
80163;SDS011;70071;55.130;61.268;2023-11-19T08:45:23;3.95;;;1.85;;
80163;SDS011;70071;55.130;61.268;2023-11-19T08:47:49;2.83;;;1.25;;
80163;SDS011;70071;55.130;61.268;2023-11-19T08:50:14;6.38;;;2.13;;
80163;SDS011;70071;55.130;61.268;2023-11-19T08:52:40;6.57;;;1.40;;
80163;SDS011;70071;55.130;61.268;2023-11-19T08:55:06;2.65;;;1.90;;
80163;SDS011;70071;55.130;61.268;2023-11-19T08:57:35;15.02;;;9.70;;
80163;SDS011;70071;55.130;61.268;2023-11-19T09:00:01;6.00;;;2.92;;
80163;SDS011;70071;55.130;61.268;2023-11-19T09:02:32;5.43;;;1.63;;
80163;SDS011;70071;55.130;61.268;2023-11-19T09:04:59;4.53;;;1.45;;
80163;SDS011;70071;55.130;61.268;2023-11-19T09:07:25;6.85;;;1.55;;
80163;SDS011;70071;55.130;61.268;2023-11-19T09:09:51;3.75;;;1.40;;
80163;SDS011;70071;55.130;61.268;2023-11-19T09:12:16;3.33;;;1.35;;
80163;SDS011;70071;55.130;61.268;2023-11-19T09:14:42;3.88;;;1.25;;
80163;SDS011;70071;55.130;61.268;2023-11-19T09:17:08;2.38;;;1.25;;
80163;SDS011;70071;55.130;61.268;2023-11-19T09:19:35;3.72;;;1.00;;
80163;SDS011;70071;55.130;61.268;2023-11-19T09:22:01;2.83;;;1.20;;
80163;SDS011;70071;55.130;61.268;2023-11-19T09:24:27;2.53;;;1.25;;
80163;SDS011;70071;55.130;61.268;2023-11-19T09:26:53;2.95;;;1.80;;
80163;SDS011;70071;55.130;61.268;2023-11-19T09:29:21;1.80;;;1.15;;
80163;SDS011;70071;55.130;61.268;2023-11-19T09:31:47;5.32;;;1.88;;
80163;SDS011;70071;55.130;61.268;2023-11-19T09:34:13;5.60;;;3.35;;
80163;SDS011;70071;55.130;61.268;2023-11-19T09:36:39;10.30;;;6.50;;
80163;SDS011;70071;55.130;61.268;2023-11-19T09:39:09;3.88;;;1.20;;
80163;SDS011;70071;55.130;61.268;2023-11-19T09:44:01;2.22;;;1.35;;
80163;SDS011;70071;55.130;61.268;2023-11-19T09:46:27;1.70;;;1.10;;
80163;SDS011;70071;55.130;61.268;2023-11-19T09:48:55;2.92;;;1.88;;
80163;SDS011;70071;55.130;61.268;2023-11-19T09:51:24;2.63;;;1.10;;
80163;SDS011;70071;55.130;61.268;2023-11-19T09:53:51;2.13;;;1.23;;
80163;SDS011;70071;55.130;61.268;2023-11-19T09:56:17;3.17;;;1.50;;
80163;SDS011;70071;55.130;61.268;2023-11-19T10:01:10;1.02;;;0.85;;
80163;SDS011;70071;55.130;61.268;2023-11-19T10:03:38;1.70;;;1.10;;
80163;SDS011;70071;55.130;61.268;2023-11-19T10:06:06;3.28;;;1.17;;
80163;SDS011;70071;55.130;61.268;2023-11-19T10:08:34;2.90;;;1.60;;
80163;SDS011;70071;55.130;61.268;2023-11-19T10:11:02;1.80;;;1.10;;
80163;SDS011;70071;55.130;61.268;2023-11-19T10:13:28;4.57;;;1.95;;
80163;SDS011;70071;55.130;61.268;2023-11-19T10:15:58;2.78;;;1.45;;
80163;SDS011;70071;55.130;61.268;2023-11-19T10:18:26;4.75;;;1.90;;
80163;SDS011;70071;55.130;61.268;2023-11-19T10:20:53;2.00;;;1.20;;
80163;SDS011;70071;55.130;61.268;2023-11-19T10:23:20;2.65;;;1.23;;
80163;SDS011;70071;55.130;61.268;2023-11-19T10:25:54;1.95;;;1.10;;
80163;SDS011;70071;55.130;61.268;2023-11-19T10:28:37;2.42;;;1.20;;
80163;SDS011;70071;55.130;61.268;2023-11-19T10:31:06;2.72;;;1.48;;
80163;SDS011;70071;55.130;61.268;2023-11-19T10:33:32;3.55;;;1.77;;
80163;SDS011;70071;55.130;61.268;2023-11-19T10:35:58;2.75;;;1.55;;
80163;SDS011;70071;55.130;61.268;2023-11-19T10:38:25;2.50;;;1.45;;
80163;SDS011;70071;55.130;61.268;2023-11-19T10:40:52;3.00;;;1.45;;
80163;SDS011;70071;55.130;61.268;2023-11-19T10:43:20;7.50;;;1.52;;
80163;SDS011;70071;55.130;61.268;2023-11-19T10:45:48;3.58;;;1.50;;
80163;SDS011;70071;55.130;61.268;2023-11-19T10:50:41;1.98;;;1.13;;
80163;SDS011;70071;55.130;61.268;2023-11-19T10:53:10;2.40;;;1.05;;
80163;SDS011;70071;55.130;61.268;2023-11-19T10:55:41;2.38;;;1.20;;
80163;SDS011;70071;55.130;61.268;2023-11-19T10:58:12;4.82;;;1.58;;
80163;SDS011;70071;55.130;61.268;2023-11-19T11:00:43;4.97;;;1.30;;
80163;SDS011;70071;55.130;61.268;2023-11-19T11:03:20;1.27;;;0.85;;
80163;SDS011;70071;55.130;61.268;2023-11-19T11:05:50;3.92;;;1.45;;
80163;SDS011;70071;55.130;61.268;2023-11-19T11:08:18;2.05;;;1.00;;
80163;SDS011;70071;55.130;61.268;2023-11-19T11:10:48;1.20;;;0.85;;
80163;SDS011;70071;55.130;61.268;2023-11-19T11:13:24;1.95;;;1.10;;
80163;SDS011;70071;55.130;61.268;2023-11-19T11:15:55;4.13;;;1.33;;
80163;SDS011;70071;55.130;61.268;2023-11-19T11:18:23;2.15;;;1.30;;
80163;SDS011;70071;55.130;61.268;2023-11-19T11:21:00;2.72;;;1.60;;
80163;SDS011;70071;55.130;61.268;2023-11-19T11:31:52;3.00;;;1.77;;
80163;SDS011;70071;55.130;61.268;2023-11-19T11:37:17;2.58;;;1.48;;
80163;SDS011;70071;55.130;61.268;2023-11-19T11:39:48;3.55;;;1.08;;
80163;SDS011;70071;55.130;61.268;2023-11-19T11:50:08;2.17;;;1.13;;
80163;SDS011;70071;55.130;61.268;2023-11-19T11:53:13;4.05;;;1.23;;
80163;SDS011;70071;55.130;61.268;2023-11-19T11:55:35;3.63;;;1.48;;
80163;SDS011;70071;55.130;61.268;2023-11-19T11:58:07;2.58;;;1.48;;
80163;SDS011;70071;55.130;61.268;2023-11-19T12:00:37;3.08;;;1.50;;
80163;SDS011;70071;55.130;61.268;2023-11-19T12:03:05;2.75;;;1.40;;
80163;SDS011;70071;55.130;61.268;2023-11-19T12:05:32;4.65;;;2.53;;
80163;SDS011;70071;55.130;61.268;2023-11-19T12:08:04;4.22;;;1.50;;
80163;SDS011;70071;55.130;61.268;2023-11-19T12:10:46;3.20;;;1.55;;
80163;SDS011;70071;55.130;61.268;2023-11-19T12:13:17;5.22;;;1.67;;
80163;SDS011;70071;55.130;61.268;2023-11-19T12:18:27;3.28;;;1.80;;
80163;SDS011;70071;55.130;61.268;2023-11-19T12:20:55;3.10;;;1.83;;
80163;SDS011;70071;55.130;61.268;2023-11-19T12:23:22;4.22;;;1.83;;
80163;SDS011;70071;55.130;61.268;2023-11-19T12:25:48;6.07;;;2.03;;
80163;SDS011;70071;55.130;61.268;2023-11-19T12:28:14;3.20;;;1.65;;
80163;SDS011;70071;55.130;61.268;2023-11-19T12:30:44;3.08;;;1.42;;
80163;SDS011;70071;55.130;61.268;2023-11-19T12:35:44;5.25;;;1.73;;
80163;SDS011;70071;55.130;61.268;2023-11-19T12:38:25;2.97;;;1.55;;
80163;SDS011;70071;55.130;61.268;2023-11-19T12:41:08;4.20;;;2.00;;
80163;SDS011;70071;55.130;61.268;2023-11-19T12:43:38;3.33;;;2.20;;
80163;SDS011;70071;55.130;61.268;2023-11-19T12:46:18;3.20;;;1.77;;
80163;SDS011;70071;55.130;61.268;2023-11-19T12:48:46;4.05;;;2.10;;
80163;SDS011;70071;55.130;61.268;2023-11-19T12:51:12;4.40;;;2.13;;
80163;SDS011;70071;55.130;61.268;2023-11-19T12:53:51;4.25;;;2.30;;
80163;SDS011;70071;55.130;61.268;2023-11-19T12:56:23;5.05;;;2.40;;
80163;SDS011;70071;55.130;61.268;2023-11-19T12:58:49;7.47;;;2.67;;
80163;SDS011;70071;55.130;61.268;2023-11-19T13:01:19;6.82;;;3.15;;
80163;SDS011;70071;55.130;61.268;2023-11-19T13:03:45;4.78;;;2.33;;
80163;SDS011;70071;55.130;61.268;2023-11-19T13:06:14;4.50;;;2.05;;
80163;SDS011;70071;55.130;61.268;2023-11-19T13:08:42;5.65;;;2.10;;
80163;SDS011;70071;55.130;61.268;2023-11-19T13:11:10;6.97;;;2.13;;
80163;SDS011;70071;55.130;61.268;2023-11-19T13:16:22;3.72;;;1.85;;
80163;SDS011;70071;55.130;61.268;2023-11-19T13:18:49;4.53;;;2.10;;
80163;SDS011;70071;55.130;61.268;2023-11-19T13:21:15;4.25;;;1.75;;
80163;SDS011;70071;55.130;61.268;2023-11-19T13:23:41;4.38;;;1.70;;
80163;SDS011;70071;55.130;61.268;2023-11-19T13:26:08;5.78;;;3.08;;
80163;SDS011;70071;55.130;61.268;2023-11-19T13:28:34;10.70;;;3.90;;
80163;SDS011;70071;55.130;61.268;2023-11-19T13:31:00;12.10;;;3.75;;
80163;SDS011;70071;55.130;61.268;2023-11-19T13:33:26;13.52;;;4.53;;
80163;SDS011;70071;55.130;61.268;2023-11-19T13:35:52;12.00;;;3.70;;
80163;SDS011;70071;55.130;61.268;2023-11-19T13:38:18;9.90;;;3.58;;
80163;SDS011;70071;55.130;61.268;2023-11-19T13:40:44;9.40;;;3.13;;
80163;SDS011;70071;55.130;61.268;2023-11-19T13:43:10;5.68;;;1.80;;
80163;SDS011;70071;55.130;61.268;2023-11-19T13:45:37;8.23;;;4.03;;
80163;SDS011;70071;55.130;61.268;2023-11-19T13:48:03;7.93;;;2.60;;
80163;SDS011;70071;55.130;61.268;2023-11-19T13:50:29;4.78;;;2.60;;
80163;SDS011;70071;55.130;61.268;2023-11-19T13:52:55;6.22;;;2.80;;
80163;SDS011;70071;55.130;61.268;2023-11-19T13:55:21;6.07;;;2.90;;
80163;SDS011;70071;55.130;61.268;2023-11-19T13:57:48;8.98;;;3.28;;
80163;SDS011;70071;55.130;61.268;2023-11-19T14:00:14;8.60;;;2.60;;
80163;SDS011;70071;55.130;61.268;2023-11-19T14:02:45;5.18;;;2.50;;
80163;SDS011;70071;55.130;61.268;2023-11-19T14:05:15;8.25;;;4.07;;
80163;SDS011;70071;55.130;61.268;2023-11-19T14:07:44;5.97;;;3.00;;
80163;SDS011;70071;55.130;61.268;2023-11-19T14:10:14;8.13;;;3.10;;
80163;SDS011;70071;55.130;61.268;2023-11-19T14:12:41;6.50;;;3.47;;
80163;SDS011;70071;55.130;61.268;2023-11-19T14:15:08;7.75;;;3.70;;
80163;SDS011;70071;55.130;61.268;2023-11-19T14:17:35;7.47;;;3.67;;
80163;SDS011;70071;55.130;61.268;2023-11-19T14:20:02;7.07;;;3.95;;
80163;SDS011;70071;55.130;61.268;2023-11-19T14:22:39;9.52;;;3.78;;
80163;SDS011;70071;55.130;61.268;2023-11-19T14:25:06;7.72;;;3.65;;
80163;SDS011;70071;55.130;61.268;2023-11-19T14:27:39;7.88;;;3.15;;
80163;SDS011;70071;55.130;61.268;2023-11-19T14:30:06;6.50;;;3.58;;
80163;SDS011;70071;55.130;61.268;2023-11-19T14:32:37;6.68;;;3.30;;
80163;SDS011;70071;55.130;61.268;2023-11-19T14:35:05;7.38;;;3.00;;
80163;SDS011;70071;55.130;61.268;2023-11-19T14:37:31;5.55;;;3.25;;
80163;SDS011;70071;55.130;61.268;2023-11-19T14:39:57;4.43;;;2.47;;
80163;SDS011;70071;55.130;61.268;2023-11-19T14:42:24;3.25;;;2.40;;
80163;SDS011;70071;55.130;61.268;2023-11-19T14:44:51;6.40;;;2.50;;
80163;SDS011;70071;55.130;61.268;2023-11-19T14:47:24;5.10;;;2.50;;
80163;SDS011;70071;55.130;61.268;2023-11-19T14:49:50;6.43;;;3.22;;
80163;SDS011;70071;55.130;61.268;2023-11-19T14:52:16;5.85;;;3.15;;
80163;SDS011;70071;55.130;61.268;2023-11-19T14:54:42;6.53;;;3.13;;
80163;SDS011;70071;55.130;61.268;2023-11-19T14:57:09;12.25;;;3.67;;
80163;SDS011;70071;55.130;61.268;2023-11-19T14:59:37;7.18;;;2.72;;
80163;SDS011;70071;55.130;61.268;2023-11-19T15:02:04;4.30;;;2.35;;
80163;SDS011;70071;55.130;61.268;2023-11-19T15:04:31;7.47;;;2.90;;
80163;SDS011;70071;55.130;61.268;2023-11-19T15:06:58;5.07;;;2.40;;
80163;SDS011;70071;55.130;61.268;2023-11-19T15:09:25;6.57;;;2.60;;
80163;SDS011;70071;55.130;61.268;2023-11-19T15:11:55;5.22;;;2.80;;
80163;SDS011;70071;55.130;61.268;2023-11-19T15:14:24;6.68;;;2.78;;
80163;SDS011;70071;55.130;61.268;2023-11-19T15:16:50;7.95;;;4.15;;